Flight Track Log - Related Links

Times and Time Zones

All times are in EDT time to prevent confusion due to time zone crossing. See the VNR160 flight status page for this flight to view local times or setup timezone preferences in your user account.

Time Position Orientation Groundspeed Altitude Reporting Facility
EDT Latitude Longitude Course Direction KTS MPH feet Rate Location/Type
Fri 09:39:00 AM 28.2833 -81.4333 240° Southwest 148 170 700  Level Orlando TRACON
Fri 09:40:00 AM 28.2667 -81.4667 240° Southwest 190 219 2,000 992 Climbing Orlando TRACON
Fri 09:41:01 AM 28.2833 -81.5500 283° West 249 287 2,700 1,438 Climbing Orlando TRACON
Fri 09:42:01 AM 28.3333 -81.5667 344° North 209 241 4,900 2,105 Climbing Orlando TRACON
Fri 09:42:55 AM 28.4000 -81.5667 360° North 213 245 6,700 1,850 Climbing Orlando TRACON
Fri 09:44:01 AM 28.4667 -81.5833 348° North 235 270 8,600 1,667 Climbing Orlando TRACON
Fri 09:45:01 AM 28.5333 -81.5667 12° North 246 283 10,200 1,670 Climbing Orlando TRACON
Fri 09:45:56 AM 28.5833 -81.5500 16° North 245 282 11,800 939 Climbing Orlando TRACON
Fri 09:46:56 AM 28.6667 -81.5167 19° North 301 346 12,000 359 Climbing Orlando TRACON
Fri 09:48:43 AM 28.8056 -81.4639 18° North 339 390 12,800 719 Climbing Jacksonville Center
Fri 09:49:43 AM 28.8681 -81.4392 19° North 313 360 14,000 1,350 Climbing Jacksonville Center
Fri 09:50:43 AM 28.9492 -81.4119 16° North 286 329 15,500 1,500 Climbing Jacksonville Center
Fri 09:51:43 AM 29.0264 -81.4131 359° North 274 315 17,000 1,450 Climbing Jacksonville Center
Fri 09:52:43 AM 29.1014 -81.4119 North 274 315 18,400 1,450 Climbing Jacksonville Center
Fri 09:53:43 AM 29.1767 -81.4133 359° North 274 315 19,900 1,500 Climbing Jacksonville Center
Fri 09:54:43 AM 29.2497 -81.4144 359° North 274 315 21,400 1,500 Climbing Jacksonville Center
Fri 09:55:43 AM 29.3269 -81.4133 North 268 308 22,900 1,550 Climbing Jacksonville Center
Fri 09:56:43 AM 29.4000 -81.4100 North 268 308 24,500 1,500 Climbing Jacksonville Center
Fri 09:57:43 AM 29.4708 -81.4136 357° North 263 303 25,900 1,300 Climbing Jacksonville Center
Fri 09:58:43 AM 29.5461 -81.4125 North 247 284 27,100 1,100 Climbing Jacksonville Center
Fri 09:59:43 AM 29.6192 -81.4114 North 252 290 28,100 1,000 Climbing Jacksonville Center
Fri 10:00:43 AM 29.6922 -81.4103 North 252 290 29,100 900 Climbing Jacksonville Center
Fri 10:01:43 AM 29.7631 -81.4117 359° North 252 290 29,900 550 Climbing Jacksonville Center
Fri 10:02:43 AM 29.8361 -81.4106 North 252 290 30,200 450 Climbing Jacksonville Center
Fri 10:03:43 AM 29.9175 -81.4092 North 264 304 30,800 700 Climbing Jacksonville Center
Fri 10:04:43 AM 29.9947 -81.4081 North 275 316 31,600 800 Climbing Jacksonville Center
Fri 10:05:43 AM 30.0700 -81.4092 359° North 275 316 32,400 550 Climbing Jacksonville Center
Fri 10:06:43 AM 30.1472 -81.4081 North 270 311 32,700 300 Climbing Jacksonville Center
Fri 10:07:43 AM 30.2308 -81.4092 359° North 275 316 33,000 150 Climbing Jacksonville Center
Fri 10:08:43 AM 30.3142 -81.4081 North 282 325 33,000  Level Jacksonville Center
Fri 10:09:43 AM 30.4039 -81.4064 North 300 345 33,000  Level Jacksonville Center
Fri 10:10:43 AM 30.4958 -81.4075 359° North 315 362 33,000  Level Jacksonville Center
Fri 10:11:43 AM 30.5878 -81.4086 359° North 327 376 33,000  Level Jacksonville Center
Fri 10:12:43 AM 30.6839 -81.4069 North 332 382 33,000  Level Jacksonville Center
Fri 10:13:43 AM 30.7797 -81.4081 359° North 332 382 33,000  Level Jacksonville Center
Fri 10:14:43 AM 30.8758 -81.4064 North 337 388 33,000  Level Jacksonville Center
Fri 10:15:43 AM 30.9719 -81.4072 360° North 342 394 33,000  Level Jacksonville Center
Fri 10:16:43 AM 31.0681 -81.4058 North 342 394 33,000  Level Jacksonville Center
Fri 10:17:43 AM 31.1661 -81.4092 358° North 347 399 33,000  Level Jacksonville Center
Fri 10:18:43 AM 31.2642 -81.4075 North 347 399 33,000  Level Jacksonville Center
Fri 10:19:43 AM 31.3497 -81.4061 North 342 394 33,000  Level Jacksonville Center
Fri 10:20:43 AM 31.4564 -81.4044 North 347 399 33,000  Level Jacksonville Center
Fri 10:21:43 AM 31.5564 -81.4053 360° North 347 399 33,000  Level Jacksonville Center
Fri 10:22:43 AM 31.6483 -81.4064 359° North 354 407 33,000  Level Jacksonville Center
Fri 10:23:43 AM 31.7547 -81.4047 North 354 407 33,000  Level Jacksonville Center
Fri 10:24:43 AM 31.8550 -81.4056 360° North 354 407 33,000  Level Jacksonville Center
Fri 10:25:43 AM 31.9450 -81.4064 360° North 354 407 33,000  Level Jacksonville Center
Fri 10:26:43 AM 32.0556 -81.4072 360° North 354 407 33,000  Level Jacksonville Center
Fri 10:27:43 AM 32.1558 -81.4103 359° North 354 407 33,000  Level Jacksonville Center
Fri 10:28:43 AM 32.2497 -81.4089 North 365 420 33,000  Level Jacksonville Center
Fri 10:29:43 AM 32.3603 -81.4069 North 365 420 33,000  Level Jacksonville Center
Fri 10:30:43 AM 32.4522 -81.4056 North 360 414 33,000  Level Jacksonville Center
Fri 10:31:43 AM 32.5628 -81.4039 North 369 425 33,000  Level Jacksonville Center
Fri 10:32:43 AM 32.6650 -81.4044 360° North 367 422 33,000  Level Jacksonville Center
Fri 10:33:43 AM 32.7547 -81.4031 North 362 417 33,000  Level Jacksonville Center
Fri 10:34:43 AM 32.8572 -81.4039 360° North 362 417 33,000  Level Jacksonville Center
Fri 10:35:43 AM 32.9614 -81.4022 North 362 417 33,000  Level Jacksonville Center
Fri 10:36:43 AM 33.0617 -81.4031 360° North 362 417 33,000  Level Jacksonville Center
Fri 10:37:43 AM 33.1597 -81.4014 North 362 417 33,000  Level Jacksonville Center
Fri 10:38:43 AM 33.2600 -81.3972 North 356 410 33,000  Level Jacksonville Center
Fri 10:39:43 AM 33.3558 -81.3981 360° North 351 404 33,000  Level Jacksonville Center
Fri 10:40:43 AM 33.4581 -81.3989 360° North 351 404 33,000 -100 Level Jacksonville Center
Fri 10:41:43 AM 33.5583 -81.3972 North 351 404 32,800 -850 Descending Jacksonville Center
Fri 10:42:43 AM 33.6669 -81.3978 360° North 363 418 31,300 -900 Descending Jacksonville Center
Fri 10:43:43 AM 33.7753 -81.3958 North 378 435 31,000 -150 Descending Jacksonville Center
Fri 10:44:43 AM 33.8964 -81.3964 360° North 393 452 31,000 -300 Level Jacksonville Center
Fri 10:45:43 AM 34.0050 -81.3944 North 393 452 30,400 -500 Descending Jacksonville Center
Fri 10:46:43 AM 34.1175 -81.3975 359° North 393 452 30,000 -423 Descending Jacksonville Center
Fri 10:48:05 AM 34.2542 -81.3950 North 383 441 29,400 -423 Descending Atlanta Center
Fri 10:49:05 AM 34.3689 -81.3964 359° North 388 447 29,000 -200 Descending Atlanta Center
Fri 10:50:05 AM 34.4775 -81.3956 360° North 388 447 29,000  Level Atlanta Center
Fri 10:51:05 AM 34.5964 -81.3942 North 382 440 29,000  Level Atlanta Center
Fri 10:52:05 AM 34.7008 -81.3986 358° North 382 440 29,000  Level Atlanta Center
Fri 10:53:05 AM 34.8094 -81.3978 360° North 382 440 29,000  Level Atlanta Center
Fri 10:54:05 AM 34.9136 -81.3969 360° North 382 440 29,000  Level Atlanta Center
Fri 10:55:05 AM 35.0222 -81.3958 360° North 382 440 29,000  Level Atlanta Center
Fri 10:56:05 AM 35.1306 -81.3950 360° North 382 440 29,000  Level Atlanta Center
Fri 10:57:05 AM 35.2244 -81.3947 360° North 382 440 29,000  Level Atlanta Center
Fri 10:58:05 AM 35.3331 -81.3961 359° North 388 447 29,000  Level Atlanta Center
Fri 10:59:05 AM 35.4414 -81.3953 360° North 383 441 29,000  Level Atlanta Center
Fri 11:00:05 AM 35.5481 -81.3994 358° North 388 447 29,000  Level Atlanta Center
Fri 11:01:05 AM 35.6731 -81.3981 North 393 452 29,000  Level Atlanta Center
Fri 11:02:05 AM 35.7836 -81.3944 North 393 452 29,000  Level Atlanta Center
Fri 11:03:05 AM 35.8919 -81.3908 North 393 452 29,000  Level Atlanta Center
Fri 11:04:05 AM 36.0025 -81.3900 360° North 393 452 29,000  Level Atlanta Center
Fri 11:05:05 AM 36.1111 -81.3914 359° North 393 452 29,000  Level Atlanta Center
Fri 11:06:05 AM 36.2092 -81.3908 360° North 393 452 29,000  Level Atlanta Center
Fri 11:07:05 AM 36.3258 -81.3894 North 399 459 29,000  Level Atlanta Center
Fri 11:08:05 AM 36.4364 -81.3911 359° North 399 459 29,000  Level Atlanta Center
Fri 11:09:05 AM 36.5489 -81.3872 North 404 465 29,000  Level Atlanta Center
Fri 11:10:05 AM 36.6636 -81.3861 360° North 404 465 29,000  Level Atlanta Center
Fri 11:11:05 AM 36.7636 -81.3853 360° North 404 465 29,000  Level Atlanta Center
Fri 11:12:05 AM 36.8950 -81.3889 359° North 396 456 29,000  Level Atlanta Center
Fri 11:14:13 AM 37.1406 -81.3903 360° North 407 468 29,000  Level Indianapolis Center
Fri 11:15:15 AM 37.2533 -81.3931 359° North 406 467 29,000  Level Indianapolis Center
Fri 11:16:17 AM 37.3681 -81.3944 359° North 409 471 29,000  Level Indianapolis Center
Fri 11:17:19 AM 37.4783 -81.3961 359° North 407 468 29,000  Level Indianapolis Center
Fri 11:18:20 AM 37.5906 -81.3967 360° North 412 474 29,000  Level Indianapolis Center
Fri 11:19:22 AM 37.7258 -81.3961 360° North 414 476 29,000  Level Indianapolis Center
Fri 11:20:23 AM 37.8378 -81.3939 North 413 475 29,000  Level Indianapolis Center
Fri 11:21:25 AM 37.9656 -81.3928 360° North 420 483 29,000  Level Indianapolis Center
Fri 11:22:26 AM 38.0819 -81.3917 360° North 419 482 29,000  Level Indianapolis Center
Fri 11:23:28 AM 38.2000 -81.3897 North 422 486 29,000  Level Indianapolis Center
Fri 11:24:30 AM 38.3186 -81.3886 360° North 422 486 29,000  Level Indianapolis Center
Fri 11:25:32 AM 38.4347 -81.3872 North 423 487 29,000 -293 Level Indianapolis Center
Fri 11:26:33 AM 38.5528 -81.3844 North 425 489 28,400 -488 Descending Indianapolis Center
Fri 11:27:35 AM 38.6992 -81.3839 360° North 445 512 28,000 -195 Descending Indianapolis Center
Fri 11:28:36 AM 38.8175 -81.3822 North 434 499 28,000  Level Indianapolis Center
Fri 11:29:38 AM 38.9364 -81.3806 North 432 497 28,000  Level Indianapolis Center
Fri 11:30:39 AM 39.0553 -81.3797 360° North 430 495 28,000 -537 Level Indianapolis Center
Fri 11:31:41 AM 39.1769 -81.3786 360° North 437 503 26,900 -1,113 Descending Indianapolis Center
Fri 11:32:43 AM 39.3061 -81.3769 North 459 528 25,700 -1,366 Descending Indianapolis Center
Fri 11:33:44 AM 39.4303 -81.3758 360° North 451 519 24,100 -1,761 Descending Indianapolis Center
Fri 11:34:32 AM 39.5436 -81.3394 14° North 427 491 22,500 -1,667 Descending Cleveland Center
Fri 11:35:32 AM 39.6603 -81.3247 North 421 484 21,100 -1,350 Descending Cleveland Center
Fri 11:36:32 AM 39.7625 -81.3364 355° North 392 451 19,800 -1,950 Descending Cleveland Center
Fri 11:37:32 AM 39.8561 -81.3458 356° North 356 410 17,200 -2,462 Descending Cleveland Center
Fri 11:37:50 AM 39.8789 -81.3469 358° North 337 388 16,600 -2,175 Descending Indianapolis Center
Fri 11:38:52 AM 39.9736 -81.3561 356° North 346 398 14,300 -2,049 Descending Indianapolis Center
Fri 11:39:53 AM 40.0714 -81.3667 355° North 351 404 12,400 -1,800 Descending Indianapolis Center
Fri 11:40:32 AM 40.1289 -81.3733 355° North 340 391 11,300 -1,636 Descending Cleveland Center
Fri 11:41:32 AM 40.2144 -81.3825 355° North 298 343 9,700 -1,200 Descending Cleveland Center
Fri 11:42:32 AM 40.2936 -81.3914 355° North 289 333 8,900 -350 Descending Cleveland Center
Fri 11:43:32 AM 40.3789 -81.3953 358° North 289 333 9,000 50 Climbing Cleveland Center
Fri 11:44:32 AM 40.4561 -81.4017 356° North 289 333 9,000 -700 Level Cleveland Center
Fri 11:45:32 AM 40.5375 -81.3836 10° North 289 333 7,600 -1,450 Descending Cleveland Center
Fri 11:46:32 AM 40.6128 -81.3597 14° North 283 326 6,100 -1,450 Descending Cleveland Center
Fri 11:47:32 AM 40.6858 -81.3306 17° North 275 316 4,700 -1,350 Descending Cleveland Center
Fri 11:48:32 AM 40.7508 -81.3011 19° North 257 296 3,400 -850 Descending Cleveland Center
Fri 11:49:32 AM 40.8092 -81.2744 19° North 233 268 3,000 -200 Descending Cleveland Center
Fri 11:50:32 AM 40.8697 -81.2503 17° North 227 261 3,000  Level Cleveland Center
Fri 11:52:00 AM 40.9000 -81.4333 North  Level FlightAware Approximate
Fri 11:59:00 AM 40.9151 -81.4436 North  Level Estimated
Fri 12:00:00 PM 40.9151 -81.4436 North  Level Estimated
Fri 12:01:00 PM 40.9151 -81.4436 North  Level Estimated

Login

Don't have an account? Register now (free) for customized features, flight alerts, and more!